TimePDT,TemperatureF,Dew PointF,Humidity,Sea Level PressureIn,VisibilityMPH,Wind Direction,Wind SpeedMPH,Gust SpeedMPH,PrecipitationIn,Events,Conditions,WindDirDegrees,DateUTC
12:56 AM,59.0,48.0,67,30.22,10.0,East,6.9,-,0.00,,Overcast,80,2012-10-25 07:56:00
1:56 AM,57.9,48.9,72,30.22,10.0,Calm,Calm,-,0.00,,Overcast,0,2012-10-25 08:56:00
2:56 AM,57.9,48.9,72,30.21,10.0,Calm,Calm,-,N/A,,Overcast,0,2012-10-25 09:56:00
3:56 AM,57.9,48.9,72,30.20,10.0,Calm,Calm,-,N/A,,Overcast,0,2012-10-25 10:56:00
4:56 AM,57.9,48.9,72,30.21,10.0,Calm,Calm,-,N/A,,Overcast,0,2012-10-25 11:56:00
5:56 AM,57.0,50.0,77,30.21,10.0,East,3.5,-,0.00,,Overcast,100,2012-10-25 12:56:00
6:56 AM,57.0,51.1,81,30.21,7.0,Calm,Calm,-,0.00,Rain,Light Rain,0,2012-10-25 13:56:00
7:47 AM,57.2,51.8,82,30.22,8.0,ENE,3.5,-,0.00,Rain,Light Rain,60,2012-10-25 14:47:00
7:56 AM,57.0,52.0,83,30.23,6.0,East,3.5,-,0.00,Rain,Light Rain,90,2012-10-25 14:56:00
8:17 AM,55.4,51.8,88,30.23,9.0,Calm,Calm,-,0.00,,Overcast,0,2012-10-25 15:17:00
8:45 AM,55.4,51.8,88,30.24,10.0,East,3.5,-,0.01,,Overcast,80,2012-10-25 15:45:00
8:56 AM,57.0,52.0,83,30.26,9.0,NE,4.6,-,0.01,,Overcast,50,2012-10-25 15:56:00
9:35 AM,57.2,53.6,88,30.26,10.0,NNE,6.9,-,N/A,,Overcast,30,2012-10-25 16:35:00
9:43 AM,57.2,53.6,88,30.26,10.0,NNE,6.9,-,N/A,,Overcast,30,2012-10-25 16:43:00
9:56 AM,55.9,53.1,90,30.27,10.0,NNE,10.4,-,N/A,,Overcast,20,2012-10-25 16:56:00
10:49 AM,57.2,53.6,88,30.27,10.0,North,5.8,-,N/A,,Overcast,350,2012-10-25 17:49:00
10:56 AM,57.0,54.0,89,30.28,10.0,NNW,4.6,-,N/A,,Overcast,340,2012-10-25 17:56:00
11:42 AM,59.0,53.6,82,30.26,10.0,North,5.8,-,N/A,,Overcast,350,2012-10-25 18:42:00
11:56 AM,59.0,52.0,78,30.27,10.0,North,5.8,-,N/A,,Overcast,350,2012-10-25 18:56:00
12:08 PM,60.8,53.6,77,30.27,10.0,NW,4.6,-,N/A,,Overcast,310,2012-10-25 19:08:00
12:26 PM,60.8,51.8,72,30.26,10.0,North,3.5,-,N/A,,Overcast,10,2012-10-25 19:26:00
12:56 PM,62.1,53.1,72,30.26,10.0,Variable,4.6,-,N/A,,Scattered Clouds,0,2012-10-25 19:56:00
1:56 PM,64.0,52.0,65,30.24,10.0,Variable,4.6,-,N/A,,Clear,0,2012-10-25 20:56:00
2:56 PM,64.9,51.1,61,30.23,10.0,Variable,5.8,-,N/A,,Clear,0,2012-10-25 21:56:00
3:56 PM,66.0,52.0,60,30.22,10.0,Variable,3.5,-,N/A,,Clear,0,2012-10-25 22:56:00
4:56 PM,66.0,51.1,59,30.22,10.0,WNW,4.6,-,N/A,,Clear,300,2012-10-25 23:56:00
5:56 PM,64.0,52.0,65,30.21,10.0,NW,5.8,-,N/A,,Clear,320,2012-10-26 00:56:00
6:56 PM,63.0,48.9,60,30.22,10.0,North,8.1,-,N/A,,Clear,350,2012-10-26 01:56:00
7:56 PM,61.0,51.1,70,30.24,10.0,NW,6.9,-,N/A,,Clear,310,2012-10-26 02:56:00
8:56 PM,59.0,51.1,75,30.24,10.0,WSW,3.5,-,N/A,,Clear,250,2012-10-26 03:56:00
9:56 PM,57.9,50.0,75,30.25,10.0,West,4.6,-,N/A,,Clear,260,2012-10-26 04:56:00
10:56 PM,57.0,48.9,74,30.25,10.0,West,3.5,-,N/A,,Clear,270,2012-10-26 05:56:00
11:56 PM,55.0,48.9,80,30.25,10.0,WSW,3.5,-,N/A,,Clear,240,2012-10-26 06:56:00